sensor_id;sensor_type;location;lat;lon;timestamp;pressure;altitude;pressure_sealevel;temperature;humidity
78411;BME280;67706;51.074;-1.796;2023-08-31T00:01:37;100622.66;;;12.29;88.81
78411;BME280;67706;51.074;-1.796;2023-08-31T00:04:04;100630.69;;;12.30;88.87
78411;BME280;67706;51.074;-1.796;2023-08-31T00:06:31;100622.44;;;12.30;89.09
78411;BME280;67706;51.074;-1.796;2023-08-31T00:08:56;100627.31;;;12.28;89.14
78411;BME280;67706;51.074;-1.796;2023-08-31T00:11:23;100611.03;;;12.27;89.51
78411;BME280;67706;51.074;-1.796;2023-08-31T00:13:51;100609.09;;;12.34;89.50
78411;BME280;67706;51.074;-1.796;2023-08-31T00:16:24;100613.31;;;12.30;89.06
78411;BME280;67706;51.074;-1.796;2023-08-31T00:18:50;100618.19;;;12.28;89.07
78411;BME280;67706;51.074;-1.796;2023-08-31T00:21:16;100610.38;;;12.31;89.03
78411;BME280;67706;51.074;-1.796;2023-08-31T00:23:42;100623.06;;;12.19;89.10
78411;BME280;67706;51.074;-1.796;2023-08-31T00:26:08;100607.84;;;12.23;88.96
78411;BME280;67706;51.074;-1.796;2023-08-31T00:28:34;100598.94;;;12.28;88.58
78411;BME280;67706;51.074;-1.796;2023-08-31T00:31:00;100603.81;;;12.32;88.52
78411;BME280;67706;51.074;-1.796;2023-08-31T00:33:29;100598.94;;;12.34;88.57
78411;BME280;67706;51.074;-1.796;2023-08-31T00:35:58;100601.28;;;12.24;89.18
78411;BME280;67706;51.074;-1.796;2023-08-31T00:38:28;100589.88;;;12.27;89.12
78411;BME280;67706;51.074;-1.796;2023-08-31T00:40:54;100582.25;;;12.29;89.07
78411;BME280;67706;51.074;-1.796;2023-08-31T00:43:20;100599.78;;;12.28;88.78
78411;BME280;67706;51.074;-1.796;2023-08-31T00:45:48;100600.44;;;12.30;88.57
78411;BME280;67706;51.074;-1.796;2023-08-31T00:48:15;100601.47;;;12.36;88.42
78411;BME280;67706;51.074;-1.796;2023-08-31T00:50:42;100594.50;;;12.33;88.56
78411;BME280;67706;51.074;-1.796;2023-08-31T00:53:09;100597.66;;;12.30;88.74
78411;BME280;67706;51.074;-1.796;2023-08-31T00:55:35;100595.38;;;12.27;88.77
78411;BME280;67706;51.074;-1.796;2023-08-31T00:58:01;100589.03;;;12.20;88.89
78411;BME280;67706;51.074;-1.796;2023-08-31T01:00:33;100588.41;;;12.18;89.45
78411;BME280;67706;51.074;-1.796;2023-08-31T01:03:08;100587.31;;;12.19;89.12
78411;BME280;67706;51.074;-1.796;2023-08-31T01:05:44;100593.03;;;12.18;89.01
78411;BME280;67706;51.074;-1.796;2023-08-31T01:08:19;100593.69;;;12.13;89.35
78411;BME280;67706;51.074;-1.796;2023-08-31T01:10:58;100593.69;;;12.13;89.44
78411;BME280;67706;51.074;-1.796;2023-08-31T01:13:27;100590.09;;;12.13;89.68
78411;BME280;67706;51.074;-1.796;2023-08-31T01:16:00;100590.06;;;12.19;89.45
78411;BME280;67706;51.074;-1.796;2023-08-31T01:18:30;100597.69;;;12.11;89.36
78411;BME280;67706;51.074;-1.796;2023-08-31T01:21:05;100587.56;;;12.11;89.43
78411;BME280;67706;51.074;-1.796;2023-08-31T01:23:46;100593.28;;;12.10;89.16
78411;BME280;67706;51.074;-1.796;2023-08-31T01:26:13;100588.00;;;12.15;89.36
78411;BME280;67706;51.074;-1.796;2023-08-31T01:28:39;100586.50;;;12.12;89.60
78411;BME280;67706;51.074;-1.796;2023-08-31T01:31:05;100587.34;;;12.13;89.62
78411;BME280;67706;51.074;-1.796;2023-08-31T01:33:32;100585.00;;;12.16;89.16
78411;BME280;67706;51.074;-1.796;2023-08-31T01:36:00;100584.16;;;12.09;89.97
78411;BME280;67706;51.074;-1.796;2023-08-31T01:38:30;100594.13;;;12.10;89.90
78411;BME280;67706;51.074;-1.796;2023-08-31T01:41:03;100582.28;;;12.10;89.84
78411;BME280;67706;51.074;-1.796;2023-08-31T01:43:31;100583.53;;;12.07;89.70
78411;BME280;67706;51.074;-1.796;2023-08-31T01:45:59;100579.75;;;12.08;89.70
78411;BME280;67706;51.074;-1.796;2023-08-31T01:48:25;100585.88;;;12.10;90.13
78411;BME280;67706;51.074;-1.796;2023-08-31T01:50:51;100584.59;;;12.13;90.06
78411;BME280;67706;51.074;-1.796;2023-08-31T01:53:17;100577.41;;;12.12;89.42
78411;BME280;67706;51.074;-1.796;2023-08-31T01:55:43;100577.19;;;12.07;89.99
78411;BME280;67706;51.074;-1.796;2023-08-31T01:58:10;100571.50;;;12.08;89.59
78411;BME280;67706;51.074;-1.796;2023-08-31T02:00:36;100577.19;;;12.13;89.10
78411;BME280;67706;51.074;-1.796;2023-08-31T02:03:04;100569.78;;;12.07;89.50
78411;BME280;67706;51.074;-1.796;2023-08-31T02:05:31;100573.41;;;11.94;90.13
78411;BME280;67706;51.074;-1.796;2023-08-31T02:07:57;100560.75;;;11.87;90.67
78411;BME280;67706;51.074;-1.796;2023-08-31T02:10:23;100568.97;;;11.93;90.89
78411;BME280;67706;51.074;-1.796;2023-08-31T02:12:49;100573.63;;;11.93;90.89
78411;BME280;67706;51.074;-1.796;2023-08-31T02:15:16;100574.88;;;11.97;90.95
78411;BME280;67706;51.074;-1.796;2023-08-31T02:17:42;100573.41;;;12.01;90.39
78411;BME280;67706;51.074;-1.796;2023-08-31T02:20:09;100569.78;;;12.07;89.63
78411;BME280;67706;51.074;-1.796;2023-08-31T02:22:35;100570.03;;;11.99;90.18
78411;BME280;67706;51.074;-1.796;2023-08-31T02:25:01;100564.50;;;12.06;90.12
78411;BME280;67706;51.074;-1.796;2023-08-31T02:27:27;100562.63;;;12.06;89.91
78411;BME280;67706;51.074;-1.796;2023-08-31T02:29:54;100553.97;;;11.89;90.21
78411;BME280;67706;51.074;-1.796;2023-08-31T02:32:21;100565.16;;;12.01;90.39
78411;BME280;67706;51.074;-1.796;2023-08-31T02:34:47;100560.91;;;11.98;90.45
78411;BME280;67706;51.074;-1.796;2023-08-31T02:37:13;100556.06;;;11.94;90.50
78411;BME280;67706;51.074;-1.796;2023-08-31T02:39:42;100552.06;;;11.90;90.82
78411;BME280;67706;51.074;-1.796;2023-08-31T02:42:08;100555.03;;;11.95;90.40
78411;BME280;67706;51.074;-1.796;2023-08-31T02:44:34;100551.63;;;12.00;90.38
78411;BME280;67706;51.074;-1.796;2023-08-31T02:47:00;100551.19;;;12.03;90.28
78411;BME280;67706;51.074;-1.796;2023-08-31T02:49:26;100547.41;;;11.97;90.67
78411;BME280;67706;51.074;-1.796;2023-08-31T02:51:52;100546.34;;;11.98;90.99
78411;BME280;67706;51.074;-1.796;2023-08-31T02:54:18;100542.13;;;11.95;90.47
78411;BME280;67706;51.074;-1.796;2023-08-31T02:56:44;100538.13;;;11.91;90.58
78411;BME280;67706;51.074;-1.796;2023-08-31T02:59:11;100534.06;;;11.94;90.67
78411;BME280;67706;51.074;-1.796;2023-08-31T03:01:37;100538.31;;;11.96;90.44
78411;BME280;67706;51.074;-1.796;2023-08-31T03:04:04;100540.44;;;11.88;90.76
78411;BME280;67706;51.074;-1.796;2023-08-31T03:06:32;100548.66;;;11.88;90.36
78411;BME280;67706;51.074;-1.796;2023-08-31T03:08:58;100537.91;;;11.86;90.39
78411;BME280;67706;51.074;-1.796;2023-08-31T03:11:24;100533.03;;;11.82;90.41
78411;BME280;67706;51.074;-1.796;2023-08-31T03:13:50;100537.28;;;11.78;90.38
78411;BME280;67706;51.074;-1.796;2023-08-31T03:16:16;100528.00;;;11.79;90.30
78411;BME280;67706;51.074;-1.796;2023-08-31T03:18:42;100534.13;;;11.81;90.29
78411;BME280;67706;51.074;-1.796;2023-08-31T03:21:08;100534.75;;;11.76;90.42
78411;BME280;67706;51.074;-1.796;2023-08-31T03:23:35;100533.25;;;11.74;90.91
78411;BME280;67706;51.074;-1.796;2023-08-31T03:26:06;100518.66;;;11.80;90.98
78411;BME280;67706;51.074;-1.796;2023-08-31T03:28:33;100525.66;;;11.76;91.50
78411;BME280;67706;51.074;-1.796;2023-08-31T03:30:59;100528.63;;;11.74;91.17
78411;BME280;67706;51.074;-1.796;2023-08-31T03:33:26;100540.25;;;11.76;91.21
78411;BME280;67706;51.074;-1.796;2023-08-31T03:35:54;100538.53;;;11.69;91.57
78411;BME280;67706;51.074;-1.796;2023-08-31T03:38:20;100524.16;;;11.73;91.34
78411;BME280;67706;51.074;-1.796;2023-08-31T03:40:53;100526.09;;;11.73;91.45
78411;BME280;67706;51.074;-1.796;2023-08-31T03:43:19;100527.31;;;11.64;91.73
78411;BME280;67706;51.074;-1.796;2023-08-31T03:45:45;100544.03;;;11.62;91.90
78411;BME280;67706;51.074;-1.796;2023-08-31T03:48:11;100536.41;;;11.58;92.15
78411;BME280;67706;51.074;-1.796;2023-08-31T03:50:38;100530.28;;;11.62;92.14
78411;BME280;67706;51.074;-1.796;2023-08-31T03:53:04;100534.94;;;11.62;91.64
78411;BME280;67706;51.074;-1.796;2023-08-31T03:55:30;100536.88;;;11.68;91.51
78411;BME280;67706;51.074;-1.796;2023-08-31T03:57:56;100529.66;;;11.67;91.77
78411;BME280;67706;51.074;-1.796;2023-08-31T04:00:23;100540.00;;;11.65;91.62
78411;BME280;67706;51.074;-1.796;2023-08-31T04:02:49;100533.03;;;11.62;91.82
78411;BME280;67706;51.074;-1.796;2023-08-31T04:05:16;100538.31;;;11.64;91.84
78411;BME280;67706;51.074;-1.796;2023-08-31T04:07:42;100538.09;;;11.65;91.88
78411;BME280;67706;51.074;-1.796;2023-08-31T04:10:08;100532.59;;;11.52;92.26
78411;BME280;67706;51.074;-1.796;2023-08-31T04:12:34;100533.44;;;11.53;92.46
78411;BME280;67706;51.074;-1.796;2023-08-31T04:15:01;100535.97;;;11.61;92.09
78411;BME280;67706;51.074;-1.796;2023-08-31T04:17:29;100534.31;;;11.53;92.45
78411;BME280;67706;51.074;-1.796;2023-08-31T04:19:55;100537.25;;;11.58;92.30
78411;BME280;67706;51.074;-1.796;2023-08-31T04:22:21;100521.81;;;11.51;92.46
78411;BME280;67706;51.074;-1.796;2023-08-31T04:24:47;100534.72;;;11.57;92.73
78411;BME280;67706;51.074;-1.796;2023-08-31T04:27:13;100536.81;;;11.55;92.59
78411;BME280;67706;51.074;-1.796;2023-08-31T04:29:39;100530.47;;;11.54;92.99
78411;BME280;67706;51.074;-1.796;2023-08-31T04:32:06;100542.31;;;11.55;92.59
78411;BME280;67706;51.074;-1.796;2023-08-31T04:34:32;100549.06;;;11.52;92.83
78411;BME280;67706;51.074;-1.796;2023-08-31T04:36:58;100551.19;;;11.57;92.70
78411;BME280;67706;51.074;-1.796;2023-08-31T04:39:24;100551.81;;;11.59;92.68
78411;BME280;67706;51.074;-1.796;2023-08-31T04:41:51;100561.78;;;11.53;93.16
78411;BME280;67706;51.074;-1.796;2023-08-31T04:44:17;100557.53;;;11.51;93.52
78411;BME280;67706;51.074;-1.796;2023-08-31T04:46:43;100562.63;;;11.54;93.08
78411;BME280;67706;51.074;-1.796;2023-08-31T04:49:10;100557.31;;;11.52;92.92
78411;BME280;67706;51.074;-1.796;2023-08-31T04:51:36;100557.97;;;11.48;93.19
78411;BME280;67706;51.074;-1.796;2023-08-31T04:54:05;100551.63;;;11.47;93.48
78411;BME280;67706;51.074;-1.796;2023-08-31T04:56:32;100552.28;;;11.56;93.55
78411;BME280;67706;51.074;-1.796;2023-08-31T04:58:58;100552.47;;;11.61;93.39
78411;BME280;67706;51.074;-1.796;2023-08-31T05:01:24;100552.47;;;11.61;93.06
78411;BME280;67706;51.074;-1.796;2023-08-31T05:03:50;100561.34;;;11.63;93.17
78411;BME280;67706;51.074;-1.796;2023-08-31T05:06:17;100553.53;;;11.60;93.37
78411;BME280;67706;51.074;-1.796;2023-08-31T05:08:43;100553.09;;;11.63;93.86
78411;BME280;67706;51.074;-1.796;2023-08-31T05:11:09;100556.69;;;11.57;94.02
78411;BME280;67706;51.074;-1.796;2023-08-31T05:13:35;100559.44;;;11.63;93.97
78411;BME280;67706;51.074;-1.796;2023-08-31T05:16:03;100564.34;;;11.68;93.54
78411;BME280;67706;51.074;-1.796;2023-08-31T05:18:29;100549.75;;;11.74;94.63
78411;BME280;67706;51.074;-1.796;2023-08-31T05:20:55;100554.19;;;11.68;95.14
78411;BME280;67706;51.074;-1.796;2023-08-31T05:23:22;100549.97;;;11.72;96.01
78411;BME280;67706;51.074;-1.796;2023-08-31T05:25:48;100552.91;;;11.71;96.22
78411;BME280;67706;51.074;-1.796;2023-08-31T05:28:14;100543.22;;;11.75;97.08
78411;BME280;67706;51.074;-1.796;2023-08-31T05:30:47;100550.81;;;11.73;97.02
78411;BME280;67706;51.074;-1.796;2023-08-31T05:33:14;100553.75;;;11.71;96.00
78411;BME280;67706;51.074;-1.796;2023-08-31T05:35:40;100554.84;;;11.70;96.39
78411;BME280;67706;51.074;-1.796;2023-08-31T05:38:06;100551.25;;;11.70;96.22
78411;BME280;67706;51.074;-1.796;2023-08-31T05:40:36;100546.78;;;11.69;97.26
78411;BME280;67706;51.074;-1.796;2023-08-31T05:43:02;100537.25;;;11.65;97.55
78411;BME280;67706;51.074;-1.796;2023-08-31T05:45:31;100544.84;;;11.63;97.50
78411;BME280;67706;51.074;-1.796;2023-08-31T05:47:57;100543.41;;;11.60;98.01
78411;BME280;67706;51.074;-1.796;2023-08-31T05:50:23;100531.34;;;11.61;97.82
78411;BME280;67706;51.074;-1.796;2023-08-31T05:52:49;100537.72;;;11.68;98.41
78411;BME280;67706;51.074;-1.796;2023-08-31T05:55:15;100538.09;;;11.65;99.15
78411;BME280;67706;51.074;-1.796;2023-08-31T05:57:42;100532.59;;;11.65;98.68
78411;BME280;67706;51.074;-1.796;2023-08-31T06:00:09;100538.75;;;11.67;98.59
78411;BME280;67706;51.074;-1.796;2023-08-31T06:02:35;100536.88;;;11.68;99.36
78411;BME280;67706;51.074;-1.796;2023-08-31T06:05:01;100544.84;;;11.63;98.75
78411;BME280;67706;51.074;-1.796;2023-08-31T06:07:27;100533.44;;;11.66;98.51
78411;BME280;67706;51.074;-1.796;2023-08-31T06:09:54;100534.13;;;11.68;97.87
78411;BME280;67706;51.074;-1.796;2023-08-31T06:12:20;100540.66;;;11.73;98.36
78411;BME280;67706;51.074;-1.796;2023-08-31T06:14:47;100546.16;;;11.73;98.50
78411;BME280;67706;51.074;-1.796;2023-08-31T06:17:13;100540.47;;;11.75;98.52
78411;BME280;67706;51.074;-1.796;2023-08-31T06:19:40;100540.47;;;11.75;99.06
78411;BME280;67706;51.074;-1.796;2023-08-31T06:22:07;100548.72;;;11.75;99.34
78411;BME280;67706;51.074;-1.796;2023-08-31T06:24:33;100532.19;;;11.81;99.28
78411;BME280;67706;51.074;-1.796;2023-08-31T06:26:59;100531.34;;;11.87;98.66
78411;BME280;67706;51.074;-1.796;2023-08-31T06:29:25;100533.88;;;11.89;98.77
78411;BME280;67706;51.074;-1.796;2023-08-31T06:31:52;100536.00;;;11.87;99.09
78411;BME280;67706;51.074;-1.796;2023-08-31T06:34:18;100533.88;;;11.89;98.60
78411;BME280;67706;51.074;-1.796;2023-08-31T06:36:44;100536.63;;;11.89;98.47
78411;BME280;67706;51.074;-1.796;2023-08-31T06:39:10;100532.16;;;12.01;98.45
78411;BME280;67706;51.074;-1.796;2023-08-31T06:41:36;100540.84;;;11.98;99.67
78411;BME280;67706;51.074;-1.796;2023-08-31T06:44:03;100543.16;;;12.01;99.07
78411;BME280;67706;51.074;-1.796;2023-08-31T06:46:29;100546.13;;;12.06;99.02
78411;BME280;67706;51.074;-1.796;2023-08-31T06:48:59;100542.75;;;12.04;99.47
78411;BME280;67706;51.074;-1.796;2023-08-31T06:51:25;100546.94;;;12.07;99.21
78411;BME280;67706;51.074;-1.796;2023-08-31T06:53:51;100545.28;;;11.99;99.45
78411;BME280;67706;51.074;-1.796;2023-08-31T06:56:17;100538.50;;;12.08;100.00
78411;BME280;67706;51.074;-1.796;2023-08-31T06:58:43;100549.50;;;12.08;100.00
78411;BME280;67706;51.074;-1.796;2023-08-31T07:01:09;100548.44;;;12.09;100.00
78411;BME280;67706;51.074;-1.796;2023-08-31T07:03:35;100545.25;;;12.12;99.95
78411;BME280;67706;51.074;-1.796;2023-08-31T07:06:02;100556.66;;;12.16;100.00
78411;BME280;67706;51.074;-1.796;2023-08-31T07:08:28;100545.66;;;12.16;100.00
78411;BME280;67706;51.074;-1.796;2023-08-31T07:10:55;100542.50;;;12.12;100.00
78411;BME280;67706;51.074;-1.796;2023-08-31T07:13:22;100545.03;;;12.20;100.00
78411;BME280;67706;51.074;-1.796;2023-08-31T07:15:47;100547.28;;;12.36;100.00
78411;BME280;67706;51.074;-1.796;2023-08-31T07:18:15;100544.53;;;12.36;100.00
78411;BME280;67706;51.074;-1.796;2023-08-31T07:20:41;100551.75;;;12.37;100.00
78411;BME280;67706;51.074;-1.796;2023-08-31T07:23:08;100547.06;;;12.44;100.00
78411;BME280;67706;51.074;-1.796;2023-08-31T07:25:34;100549.19;;;12.42;100.00
78411;BME280;67706;51.074;-1.796;2023-08-31T07:28:00;100546.25;;;12.37;100.00
78411;BME280;67706;51.074;-1.796;2023-08-31T07:30:26;100554.50;;;12.37;100.00
78411;BME280;67706;51.074;-1.796;2023-08-31T07:32:52;100546.88;;;12.39;100.00
78411;BME280;67706;51.074;-1.796;2023-08-31T07:35:19;100545.41;;;12.37;100.00
78411;BME280;67706;51.074;-1.796;2023-08-31T07:37:45;100548.78;;;12.39;99.97
78411;BME280;67706;51.074;-1.796;2023-08-31T07:40:11;100551.94;;;12.42;100.00
78411;BME280;67706;51.074;-1.796;2023-08-31T07:42:37;100540.50;;;12.45;100.00
78411;BME280;67706;51.074;-1.796;2023-08-31T07:45:04;100547.25;;;12.49;100.00
78411;BME280;67706;51.074;-1.796;2023-08-31T07:47:31;100546.84;;;12.52;100.00
78411;BME280;67706;51.074;-1.796;2023-08-31T07:49:57;100551.03;;;12.55;100.00
78411;BME280;67706;51.074;-1.796;2023-08-31T07:52:23;100546.59;;;12.60;100.00
78411;BME280;67706;51.074;-1.796;2023-08-31T07:54:49;100550.59;;;12.64;100.00
78411;BME280;67706;51.074;-1.796;2023-08-31T07:57:16;100552.84;;;12.74;100.00
78411;BME280;67706;51.074;-1.796;2023-08-31T07:59:42;100549.69;;;12.77;100.00
78411;BME280;67706;51.074;-1.796;2023-08-31T08:02:08;100547.53;;;12.86;100.00
78411;BME280;67706;51.074;-1.796;2023-08-31T08:04:34;100543.28;;;12.90;100.00
78411;BME280;67706;51.074;-1.796;2023-08-31T08:07:00;100540.94;;;12.87;100.00
78411;BME280;67706;51.074;-1.796;2023-08-31T08:09:26;100540.84;;;13.13;98.85
78411;BME280;67706;51.074;-1.796;2023-08-31T08:11:52;100547.44;;;12.99;100.00
78411;BME280;67706;51.074;-1.796;2023-08-31T08:14:19;100544.06;;;12.97;100.00
78411;BME280;67706;51.074;-1.796;2023-08-31T08:16:45;100546.19;;;12.95;100.00
78411;BME280;67706;51.074;-1.796;2023-08-31T08:19:11;100549.63;;;12.90;100.00
78411;BME280;67706;51.074;-1.796;2023-08-31T08:21:37;100545.97;;;13.03;100.00
78411;BME280;67706;51.074;-1.796;2023-08-31T08:24:03;100545.78;;;12.91;100.00
78411;BME280;67706;51.074;-1.796;2023-08-31T08:26:29;100551.53;;;12.90;99.78
78411;BME280;67706;51.074;-1.796;2023-08-31T08:28:55;100545.41;;;12.88;100.00
78411;BME280;67706;51.074;-1.796;2023-08-31T08:31:22;100542.44;;;12.83;100.00
78411;BME280;67706;51.074;-1.796;2023-08-31T08:33:48;100544.56;;;12.81;100.00
78411;BME280;67706;51.074;-1.796;2023-08-31T08:36:14;100551.34;;;12.78;100.00
78411;BME280;67706;51.074;-1.796;2023-08-31T08:38:41;100547.59;;;12.72;100.00
78411;BME280;67706;51.074;-1.796;2023-08-31T08:41:07;100542.50;;;12.69;100.00
78411;BME280;67706;51.074;-1.796;2023-08-31T08:43:34;100535.31;;;12.68;100.00
78411;BME280;67706;51.074;-1.796;2023-08-31T08:46:04;100534.97;;;12.52;100.00
78411;BME280;67706;51.074;-1.796;2023-08-31T08:48:32;100538.34;;;12.60;100.00
78411;BME280;67706;51.074;-1.796;2023-08-31T08:50:59;100544.44;;;12.69;100.00
78411;BME280;67706;51.074;-1.796;2023-08-31T08:53:25;100536.56;;;12.72;100.00
78411;BME280;67706;51.074;-1.796;2023-08-31T08:55:51;100530.06;;;12.67;100.00
78411;BME280;67706;51.074;-1.796;2023-08-31T08:58:19;100538.94;;;12.69;100.00
78411;BME280;67706;51.074;-1.796;2023-08-31T09:00:46;100541.09;;;12.60;100.00
78411;BME280;67706;51.074;-1.796;2023-08-31T09:03:13;100540.22;;;12.66;100.00
78411;BME280;67706;51.074;-1.796;2023-08-31T09:05:39;100538.69;;;12.70;100.00
78411;BME280;67706;51.074;-1.796;2023-08-31T09:08:06;100533.75;;;12.86;100.00
78411;BME280;67706;51.074;-1.796;2023-08-31T09:10:39;100533.84;;;13.04;100.00
78411;BME280;67706;51.074;-1.796;2023-08-31T09:13:06;100525.78;;;13.15;100.00
78411;BME280;67706;51.074;-1.796;2023-08-31T09:15:39;100528.84;;;13.32;99.89
78411;BME280;67706;51.074;-1.796;2023-08-31T09:18:05;100522.16;;;13.46;99.46
78411;BME280;67706;51.074;-1.796;2023-08-31T09:20:31;100521.59;;;13.62;98.69
78411;BME280;67706;51.074;-1.796;2023-08-31T09:22:58;100520.34;;;13.58;99.45
78411;BME280;67706;51.074;-1.796;2023-08-31T09:25:24;100516.41;;;13.72;98.81
78411;BME280;67706;51.074;-1.796;2023-08-31T09:27:51;100512.25;;;13.63;96.85
78411;BME280;67706;51.074;-1.796;2023-08-31T09:30:18;100506.81;;;13.57;99.27
78411;BME280;67706;51.074;-1.796;2023-08-31T09:32:43;100505.03;;;13.62;100.00
78411;BME280;67706;51.074;-1.796;2023-08-31T09:35:17;100505.91;;;13.63;100.00
78411;BME280;67706;51.074;-1.796;2023-08-31T09:37:55;100507.25;;;13.53;98.94
78411;BME280;67706;51.074;-1.796;2023-08-31T09:40:22;100505.94;;;13.56;98.84
78411;BME280;67706;51.074;-1.796;2023-08-31T09:42:50;100506.56;;;13.58;100.00
78411;BME280;67706;51.074;-1.796;2023-08-31T09:45:16;100503.66;;;13.53;99.67
78411;BME280;67706;51.074;-1.796;2023-08-31T09:47:43;100497.06;;;13.54;100.00
78411;BME280;67706;51.074;-1.796;2023-08-31T09:50:10;100497.38;;;13.64;99.68
78411;BME280;67706;51.074;-1.796;2023-08-31T09:52:37;100503.69;;;13.71;100.00
78411;BME280;67706;51.074;-1.796;2023-08-31T09:55:05;100490.06;;;13.76;99.23
78411;BME280;67706;51.074;-1.796;2023-08-31T09:57:33;100485.28;;;13.90;98.00
78411;BME280;67706;51.074;-1.796;2023-08-31T09:59:59;100485.03;;;13.91;98.93
78411;BME280;67706;51.074;-1.796;2023-08-31T10:02:25;100484.72;;;13.99;99.30
78411;BME280;67706;51.074;-1.796;2023-08-31T10:04:53;100487.81;;;14.09;99.07
78411;BME280;67706;51.074;-1.796;2023-08-31T10:07:19;100470.19;;;14.10;99.08
78411;BME280;67706;51.074;-1.796;2023-08-31T10:09:47;100470.00;;;14.30;99.94
78411;BME280;67706;51.074;-1.796;2023-08-31T10:12:14;100474.63;;;14.48;98.78
78411;BME280;67706;51.074;-1.796;2023-08-31T10:14:40;100469.84;;;14.43;96.78
78411;BME280;67706;51.074;-1.796;2023-08-31T10:17:07;100466.53;;;14.35;97.62
78411;BME280;67706;51.074;-1.796;2023-08-31T10:19:33;100467.84;;;14.32;97.78
78411;BME280;67706;51.074;-1.796;2023-08-31T10:21:59;100472.50;;;14.31;98.31
78411;BME280;67706;51.074;-1.796;2023-08-31T10:24:57;100459.81;;;14.30;99.30
78411;BME280;67706;51.074;-1.796;2023-08-31T10:27:23;100466.69;;;14.40;98.37
78411;BME280;67706;51.074;-1.796;2023-08-31T10:29:50;100463.75;;;14.16;98.69
78411;BME280;67706;51.074;-1.796;2023-08-31T10:32:17;100450.03;;;14.28;99.28
78411;BME280;67706;51.074;-1.796;2023-08-31T10:34:43;100450.88;;;14.28;98.94
78411;BME280;67706;51.074;-1.796;2023-08-31T10:37:22;100460.09;;;14.41;98.73
78411;BME280;67706;51.074;-1.796;2023-08-31T10:39:48;100454.50;;;14.47;98.42
78411;BME280;67706;51.074;-1.796;2023-08-31T10:42:14;100448.16;;;14.58;97.09
78411;BME280;67706;51.074;-1.796;2023-08-31T10:44:41;100436.78;;;14.66;98.50
78411;BME280;67706;51.074;-1.796;2023-08-31T10:47:08;100443.81;;;14.80;97.24
78411;BME280;67706;51.074;-1.796;2023-08-31T10:49:35;100442.97;;;14.80;98.35
78411;BME280;67706;51.074;-1.796;2023-08-31T10:52:15;100423.88;;;14.78;98.85
78411;BME280;67706;51.074;-1.796;2023-08-31T10:54:42;100431.19;;;14.73;99.04
78411;BME280;67706;51.074;-1.796;2023-08-31T10:57:08;100425.31;;;14.81;97.22
78411;BME280;67706;51.074;-1.796;2023-08-31T10:59:44;100428.13;;;15.04;96.69
78411;BME280;67706;51.074;-1.796;2023-08-31T11:02:27;100418.19;;;15.03;96.10
78411;BME280;67706;51.074;-1.796;2023-08-31T11:04:54;100420.81;;;14.98;98.11
78411;BME280;67706;51.074;-1.796;2023-08-31T11:07:24;100420.91;;;14.91;97.01
78411;BME280;67706;51.074;-1.796;2023-08-31T11:09:50;100420.78;;;14.86;98.58
78411;BME280;67706;51.074;-1.796;2023-08-31T11:12:16;100421.75;;;14.92;99.17
78411;BME280;67706;51.074;-1.796;2023-08-31T11:14:42;100423.50;;;14.75;97.93
78411;BME280;67706;51.074;-1.796;2023-08-31T11:17:09;100416.75;;;14.71;99.44
78411;BME280;67706;51.074;-1.796;2023-08-31T11:19:37;100415.66;;;14.60;99.92
78411;BME280;67706;51.074;-1.796;2023-08-31T11:22:04;100420.44;;;14.53;100.00
78411;BME280;67706;51.074;-1.796;2023-08-31T11:24:30;100413.97;;;14.59;100.00
78411;BME280;67706;51.074;-1.796;2023-08-31T11:26:56;100423.09;;;14.60;100.00
78411;BME280;67706;51.074;-1.796;2023-08-31T11:29:22;100422.25;;;14.59;98.92
78411;BME280;67706;51.074;-1.796;2023-08-31T11:31:48;100425.09;;;14.53;98.32
78411;BME280;67706;51.074;-1.796;2023-08-31T11:34:15;100413.22;;;14.52;98.29
78411;BME280;67706;51.074;-1.796;2023-08-31T11:36:42;100421.03;;;14.55;99.71
78411;BME280;67706;51.074;-1.796;2023-08-31T11:39:09;100412.69;;;14.73;97.61
78411;BME280;67706;51.074;-1.796;2023-08-31T11:41:36;100401.13;;;14.53;99.10
78411;BME280;67706;51.074;-1.796;2023-08-31T11:44:06;100407.69;;;14.52;100.00
78411;BME280;67706;51.074;-1.796;2023-08-31T11:46:33;100404.84;;;14.59;97.71
78411;BME280;67706;51.074;-1.796;2023-08-31T11:48:59;100395.19;;;14.50;99.09
78411;BME280;67706;51.074;-1.796;2023-08-31T11:51:26;100397.50;;;14.53;100.00
78411;BME280;67706;51.074;-1.796;2023-08-31T11:53:55;100397.75;;;14.51;99.62
78411;BME280;67706;51.074;-1.796;2023-08-31T11:56:23;100387.16;;;14.48;99.71
78411;BME280;67706;51.074;-1.796;2023-08-31T11:58:50;100399.56;;;14.57;100.00
78411;BME280;67706;51.074;-1.796;2023-08-31T12:01:17;100397.66;;;14.58;100.00
78411;BME280;67706;51.074;-1.796;2023-08-31T12:03:44;100396.56;;;14.59;100.00
78411;BME280;67706;51.074;-1.796;2023-08-31T12:06:10;100396.94;;;14.62;99.21
78411;BME280;67706;51.074;-1.796;2023-08-31T12:08:37;100402.44;;;14.62;99.22
78411;BME280;67706;51.074;-1.796;2023-08-31T12:11:06;100398.03;;;14.73;100.00
78411;BME280;67706;51.074;-1.796;2023-08-31T12:13:32;100407.22;;;14.85;100.00
78411;BME280;67706;51.074;-1.796;2023-08-31T12:15:58;100399.81;;;14.97;98.03
78411;BME280;67706;51.074;-1.796;2023-08-31T12:18:29;100403.16;;;14.99;99.16
78411;BME280;67706;51.074;-1.796;2023-08-31T12:20:56;100395.00;;;15.04;99.38
78411;BME280;67706;51.074;-1.796;2023-08-31T12:23:22;100399.25;;;15.18;97.63
78411;BME280;67706;51.074;-1.796;2023-08-31T12:25:48;100404.13;;;15.04;99.57
78411;BME280;67706;51.074;-1.796;2023-08-31T12:28:16;100415.78;;;15.06;99.00
78411;BME280;67706;51.074;-1.796;2023-08-31T12:30:47;100404.72;;;15.06;99.37
78411;BME280;67706;51.074;-1.796;2023-08-31T12:33:13;100400.50;;;15.04;100.00
78411;BME280;67706;51.074;-1.796;2023-08-31T12:35:40;100402.94;;;15.00;100.00
78411;BME280;67706;51.074;-1.796;2023-08-31T12:38:06;100404.94;;;14.93;100.00